Time;durP1;ratioP1;P1;durP2;ratioP2;P2;SDS_P1;SDS_P2;PMS_P1;PMS_P2;Temp;Humidity;BMP_temperature;BMP_pressure;BME280_temperature;BME280_humidity;BME280_pressure;Samples;Min_cycle;Max_cycle;Signal;HPM_P1;HPM_P2
2021/01/05 00:00:17;;;;;;;19.70;13.03;;;3.00;99.90;;;;;;5094804;28;20213;-39
2021/01/05 00:02:44;;;;;;;24.38;15.05;;;3.00;99.90;;;;;;5094545;28;20285;-39
2021/01/05 00:05:12;;;;;;;18.27;14.05;;;3.00;99.90;;;;;;5094518;28;20293;-39
2021/01/05 00:07:39;;;;;;;19.83;14.03;;;3.00;99.90;;;;;;5094415;28;20313;-40
2021/01/05 00:10:07;;;;;;;18.47;13.73;;;3.00;99.90;;;;;;5094273;28;20213;-40
2021/01/05 00:12:34;;;;;;;20.77;14.70;;;2.90;99.90;;;;;;5094338;28;20286;-39
2021/01/05 00:15:05;;;;;;;21.27;15.97;;;2.90;99.90;;;;;;5094468;28;20298;-40
2021/01/05 00:17:32;;;;;;;21.33;15.32;;;2.90;99.90;;;;;;5094134;28;20231;-40
2021/01/05 00:19:59;;;;;;;25.00;17.30;;;2.80;99.90;;;;;;5094382;28;20565;-39
2021/01/05 00:22:26;;;;;;;21.20;14.97;;;2.80;99.90;;;;;;5094097;28;20238;-40
2021/01/05 00:24:53;;;;;;;17.80;14.73;;;2.80;99.90;;;;;;5094252;28;20209;-39
2021/01/05 00:27:20;;;;;;;18.67;14.50;;;2.80;99.90;;;;;;5094016;28;20755;-39
2021/01/05 00:29:47;;;;;;;19.20;14.68;;;2.80;99.90;;;;;;5094051;28;20701;-39
2021/01/05 00:32:16;;;;;;;20.30;14.27;;;2.80;99.90;;;;;;5093865;28;20211;-39
2021/01/05 00:34:45;;;;;;;21.83;14.57;;;2.90;99.90;;;;;;5093877;28;20234;-39
2021/01/05 00:37:14;;;;;;;19.95;13.43;;;2.90;99.90;;;;;;5093850;28;20290;-39
2021/01/05 00:39:41;;;;;;;18.63;13.70;;;2.90;99.90;;;;;;5094042;28;20297;-40
2021/01/05 00:42:09;;;;;;;18.30;13.63;;;2.90;99.90;;;;;;5093861;28;20207;-37
2021/01/05 00:44:36;;;;;;;17.63;13.77;;;2.90;99.90;;;;;;5093621;28;20617;-38
2021/01/05 00:47:04;;;;;;;18.63;15.32;;;3.00;99.90;;;;;;5093588;28;20269;-40
2021/01/05 00:49:31;;;;;;;20.40;14.63;;;2.90;99.90;;;;;;5093515;28;20241;-38
2021/01/05 00:51:58;;;;;;;18.17;13.63;;;2.90;99.90;;;;;;5093452;28;20806;-39
2021/01/05 00:54:31;;;;;;;15.32;12.98;;;3.00;99.90;;;;;;5093427;28;20202;-38
2021/01/05 00:57:03;;;;;;;20.45;14.35;;;3.00;99.90;;;;;;5084115;28;20298;-38
2021/01/05 00:59:30;;;;;;;18.67;14.13;;;3.10;99.90;;;;;;5081348;28;20305;-38
2021/01/05 01:01:58;;;;;;;17.77;13.30;;;3.10;99.90;;;;;;5090066;28;20297;-38
2021/01/05 01:04:25;;;;;;;20.98;14.68;;;3.10;99.90;;;;;;5092519;28;20225;-38
2021/01/05 01:06:53;;;;;;;20.40;14.32;;;3.20;99.90;;;;;;5093248;28;20623;-38
2021/01/05 01:09:20;;;;;;;18.67;13.70;;;3.10;99.90;;;;;;5093031;28;20297;-39
2021/01/05 01:12:02;;;;;;;18.08;13.80;;;3.00;99.90;;;;;;5093015;28;20321;-42
2021/01/05 01:14:30;;;;;;;19.15;14.10;;;3.10;99.90;;;;;;5092889;28;20227;-39
2021/01/05 01:16:57;;;;;;;20.05;14.63;;;3.10;99.90;;;;;;5093254;28;20293;-39
2021/01/05 01:19:24;;;;;;;18.88;13.63;;;3.10;99.90;;;;;;5093181;28;20267;-39
2021/01/05 01:21:55;;;;;;;19.50;14.97;;;3.20;99.90;;;;;;5092974;28;20210;-38
2021/01/05 01:24:24;;;;;;;16.97;14.37;;;3.20;99.90;;;;;;5093012;28;20252;-39
2021/01/05 01:26:51;;;;;;;19.40;15.10;;;3.20;99.90;;;;;;5092710;28;20314;-38
2021/01/05 01:29:19;;;;;;;19.67;15.00;;;3.20;99.90;;;;;;5092761;28;20301;-39
2021/01/05 01:31:46;;;;;;;20.13;14.97;;;3.20;99.90;;;;;;5092956;28;20620;-39
2021/01/05 01:34:16;;;;;;;20.77;15.02;;;3.10;99.90;;;;;;5092848;28;20298;-38
2021/01/05 01:36:53;;;;;;;18.00;14.50;;;3.10;99.90;;;;;;5092736;28;20238;-39
2021/01/05 01:39:20;;;;;;;19.70;15.02;;;3.00;99.90;;;;;;5092698;28;20220;-39
2021/01/05 01:41:47;;;;;;;22.38;15.43;;;3.00;99.90;;;;;;5092801;28;20620;-39
2021/01/05 01:44:18;;;;;;;24.90;16.30;;;3.00;99.90;;;;;;5092654;28;20732;-38
2021/01/05 01:46:46;;;;;;;19.70;14.35;;;3.00;99.90;;;;;;5092516;28;20325;-38
2021/01/05 01:49:13;;;;;;;17.10;13.85;;;3.00;99.90;;;;;;5092493;28;20206;-39
2021/01/05 01:51:41;;;;;;;19.02;14.27;;;3.00;99.90;;;;;;5092712;28;20568;-39
2021/01/05 01:54:45;;;;;;;19.98;14.43;;;3.10;99.90;;;;;;5092528;28;20585;-38
2021/01/05 01:57:34;;;;;;;17.63;14.07;;;3.10;99.90;;;;;;5092199;28;20288;-39
2021/01/05 02:00:10;;;;;;;17.10;13.00;;;3.10;99.90;;;;;;5092500;28;20272;-39
2021/01/05 02:02:59;;;;;;;18.13;14.43;;;3.10;99.90;;;;;;5092553;28;20240;-38
2021/01/05 02:05:32;;;;;;;18.95;14.38;;;3.30;99.90;;;;;;5092558;28;20289;-39
2021/01/05 02:08:17;;;;;;;19.60;14.68;;;3.30;99.90;;;;;;5092360;28;20230;-39
2021/01/05 02:10:55;;;;;;;15.80;13.40;;;3.40;99.90;;;;;;5091916;28;20264;-39
2021/01/05 02:13:36;;;;;;;20.47;14.87;;;3.50;99.90;;;;;;5092401;28;20210;-39
2021/01/05 02:16:17;;;;;;;19.20;14.98;;;3.50;99.90;;;;;;5092279;28;20301;-40
2021/01/05 02:18:48;;;;;;;17.60;14.17;;;3.50;99.90;;;;;;5092207;28;20234;-39
2021/01/05 02:21:23;;;;;;;17.67;13.50;;;3.40;99.90;;;;;;5092073;28;20206;-39
2021/01/05 02:24:06;;;;;;;17.42;12.48;;;3.40;99.90;;;;;;5092445;28;20210;-40
2021/01/05 02:26:39;;;;;;;18.08;12.50;;;3.40;99.90;;;;;;5092189;28;20309;-39
2021/01/05 02:29:12;;;;;;;15.97;11.83;;;3.40;99.90;;;;;;5092096;28;20692;-38
2021/01/05 02:31:51;;;;;;;16.75;13.05;;;3.50;99.90;;;;;;5091975;28;20306;-39
2021/01/05 02:34:31;;;;;;;15.60;11.75;;;3.40;99.90;;;;;;5092370;28;20301;-42
2021/01/05 02:37:18;;;;;;;17.03;12.47;;;3.40;99.90;;;;;;5092075;28;20286;-39
2021/01/05 02:40:25;;;;;;;14.90;11.93;;;3.30;99.90;;;;;;5091845;28;20369;-42
2021/01/05 02:43:16;;;;;;;15.33;12.00;;;3.10;99.90;;;;;;5092134;28;20203;-39
2021/01/05 02:45:53;;;;;;;12.05;9.32;;;3.20;99.90;;;;;;5091819;28;20297;-39
2021/01/05 02:48:41;;;;;;;13.52;9.48;;;3.30;99.90;;;;;;5091742;28;20223;-40
2021/01/05 02:51:31;;;;;;;14.30;9.70;;;3.30;99.90;;;;;;5091993;28;20607;-40
2021/01/05 02:54:35;;;;;;;13.27;10.27;;;3.30;99.90;;;;;;5091832;28;20613;-40
2021/01/05 02:57:23;;;;;;;17.20;10.80;;;3.40;99.90;;;;;;5091926;28;20252;-44
2021/01/05 03:00:27;;;;;;;15.32;11.55;;;3.30;99.90;;;;;;5091764;28;20298;-40
2021/01/05 03:03:31;;;;;;;16.07;11.30;;;3.20;99.90;;;;;;5092014;28;20203;-39
2021/01/05 03:06:32;;;;;;;14.57;9.90;;;3.10;99.90;;;;;;5091669;28;20256;-39
2021/01/05 03:09:24;;;;;;;14.57;9.37;;;3.00;99.90;;;;;;5091537;28;20300;-39
2021/01/05 03:12:21;;;;;;;13.25;9.90;;;3.00;99.90;;;;;;5091550;28;20262;-40
2021/01/05 03:15:05;;;;;;;11.32;9.18;;;3.00;99.90;;;;;;5084632;28;20369;-40
2021/01/05 03:17:35;;;;;;;11.05;8.63;;;3.10;99.90;;;;;;5091392;28;20713;-40
2021/01/05 03:20:11;;;;;;;11.82;9.25;;;3.10;99.90;;;;;;5091674;28;20238;-40
2021/01/05 03:22:48;;;;;;;16.50;10.03;;;3.20;99.90;;;;;;5091318;28;20206;-40
2021/01/05 03:25:18;;;;;;;11.95;10.48;;;3.20;99.90;;;;;;5091597;28;20245;-40
2021/01/05 03:27:46;;;;;;;14.55;9.43;;;3.20;99.90;;;;;;5094452;28;20306;-39
2021/01/05 03:30:22;;;;;;;14.55;9.93;;;3.30;99.90;;;;;;5095084;28;20293;-38
2021/01/05 03:32:50;;;;;;;14.65;10.75;;;3.40;99.90;;;;;;5095136;28;20380;-39
2021/01/05 03:35:17;;;;;;;13.23;10.00;;;3.40;99.90;;;;;;5095105;28;20238;-39
2021/01/05 03:37:44;;;;;;;11.90;9.87;;;3.50;99.90;;;;;;5094820;28;20740;-39
2021/01/05 03:40:13;;;;;;;15.00;11.13;;;3.50;99.90;;;;;;5094791;28;20305;-40
2021/01/05 03:42:39;;;;;;;13.80;10.10;;;3.50;99.90;;;;;;5095020;28;20332;-39
2021/01/05 03:45:09;;;;;;;13.35;10.25;;;3.40;99.90;;;;;;5095068;28;20294;-38
2021/01/05 03:47:36;;;;;;;12.13;10.20;;;3.40;99.90;;;;;;5094875;28;20269;-39
2021/01/05 03:50:04;;;;;;;11.95;9.70;;;3.50;99.90;;;;;;5094576;28;20206;-39
2021/01/05 03:52:31;;;;;;;13.75;10.27;;;3.60;99.90;;;;;;5094654;28;20234;-39
2021/01/05 03:54:58;;;;;;;14.90;11.77;;;3.60;99.90;;;;;;5094553;28;20577;-38
2021/01/05 03:57:26;;;;;;;18.25;12.15;;;3.60;99.90;;;;;;5094639;28;20199;-39
2021/01/05 03:59:53;;;;;;;15.68;11.45;;;3.70;99.90;;;;;;5094390;28;20207;-39
2021/01/05 04:02:20;;;;;;;14.63;11.77;;;3.60;99.90;;;;;;5094440;28;20211;-39
2021/01/05 04:04:48;;;;;;;15.73;11.93;;;3.60;99.90;;;;;;5094505;28;20234;-39
2021/01/05 04:07:15;;;;;;;14.65;10.73;;;3.60;99.90;;;;;;5094423;28;20358;-39
2021/01/05 04:09:42;;;;;;;17.90;12.80;;;3.60;99.90;;;;;;5094480;28;20301;-39
2021/01/05 04:12:09;;;;;;;16.33;12.30;;;3.60;99.90;;;;;;5094127;28;20642;-39
2021/01/05 04:14:37;;;;;;;17.13;11.57;;;3.60;99.90;;;;;;5094295;28;20239;-39
2021/01/05 04:17:04;;;;;;;16.67;12.20;;;3.70;99.90;;;;;;5094287;28;20242;-39
2021/01/05 04:19:31;;;;;;;17.88;12.48;;;3.60;99.90;;;;;;5094025;28;20214;-39
2021/01/05 04:21:58;;;;;;;17.33;11.88;;;3.50;99.90;;;;;;5094041;28;20295;-39
2021/01/05 04:24:26;;;;;;;17.83;12.80;;;3.50;99.90;;;;;;5094097;28;20218;-39
2021/01/05 04:26:53;;;;;;;14.90;10.95;;;3.50;99.90;;;;;;5093875;28;20375;-39
2021/01/05 04:29:20;;;;;;;19.55;12.15;;;3.50;99.90;;;;;;5094040;28;20293;-39
2021/01/05 04:31:47;;;;;;;18.30;13.45;;;3.40;99.90;;;;;;5094003;28;20303;-38
2021/01/05 04:34:17;;;;;;;18.43;13.03;;;3.50;99.90;;;;;;5093778;28;20710;-39
2021/01/05 04:36:44;;;;;;;15.80;11.20;;;3.50;99.90;;;;;;5093779;28;20206;-39
2021/01/05 04:39:12;;;;;;;17.83;12.80;;;3.50;99.90;;;;;;5093736;28;20213;-38
2021/01/05 04:41:47;;;;;;;15.82;11.73;;;3.50;99.90;;;;;;5093738;28;20245;-39
2021/01/05 04:44:16;;;;;;;17.95;12.32;;;3.50;99.90;;;;;;5093773;28;20245;-39
2021/01/05 04:46:51;;;;;;;16.42;11.45;;;3.50;99.90;;;;;;5093465;28;20594;-38
2021/01/05 04:49:32;;;;;;;15.20;11.13;;;3.40;99.90;;;;;;5093913;28;20282;-40
2021/01/05 04:52:05;;;;;;;16.40;11.05;;;3.30;99.90;;;;;;5093704;28;20242;-39
2021/01/05 04:54:39;;;;;;;15.57;11.43;;;3.30;99.90;;;;;;5093396;28;20681;-39
2021/01/05 04:57:11;;;;;;;17.23;12.10;;;3.30;99.90;;;;;;5093467;28;20293;-39
2021/01/05 05:03:36;;;;;;;19.45;12.20;;;3.40;99.90;;;;;;5093430;28;20251;-38
2021/01/05 05:06:28;;;;;;;15.80;11.53;;;3.20;99.90;;;;;;5093292;28;20210;-40
2021/01/05 05:09:03;;;;;;;16.00;11.25;;;3.00;99.90;;;;;;5093274;28;20218;-38
2021/01/05 05:11:43;;;;;;;18.50;12.70;;;3.00;99.90;;;;;;5093327;28;20234;-40
2021/01/05 05:14:18;;;;;;;16.73;10.77;;;2.90;99.90;;;;;;5093070;28;20214;-39
2021/01/05 05:17:02;;;;;;;17.87;13.00;;;2.80;99.90;;;;;;5093163;28;20634;-39
2021/01/05 05:19:46;;;;;;;17.30;10.80;;;2.80;99.90;;;;;;5093046;28;20214;-39
2021/01/05 05:22:22;;;;;;;18.67;12.53;;;2.80;99.90;;;;;;5092702;28;20717;-38
2021/01/05 05:24:53;;;;;;;15.63;11.75;;;2.80;99.90;;;;;;5093250;28;20237;-38
2021/01/05 05:27:32;;;;;;;20.30;12.48;;;2.80;99.90;;;;;;5092756;28;20303;-40
2021/01/05 05:30:05;;;;;;;17.45;10.73;;;2.80;99.90;;;;;;5092786;28;20669;-39
2021/01/05 05:32:36;;;;;;;17.80;13.05;;;2.80;99.90;;;;;;5092902;28;20218;-40
2021/01/05 05:35:53;;;;;;;18.75;12.60;;;2.80;99.90;;;;;;5093681;28;20298;-39
2021/01/05 05:38:33;;;;;;;17.42;11.68;;;2.80;99.90;;;;;;5075147;28;20238;-40
2021/01/05 05:41:15;;;;;;;18.33;12.57;;;2.80;99.90;;;;;;5092674;28;20214;-39
2021/01/05 05:43:57;;;;;;;18.07;12.00;;;2.80;99.90;;;;;;5092492;28;20211;-39
2021/01/05 05:46:30;;;;;;;19.23;12.40;;;2.80;99.90;;;;;;5092660;28;20267;-40
2021/01/05 05:49:02;;;;;;;22.05;13.27;;;2.90;99.90;;;;;;5092012;28;20252;-41
2021/01/05 05:51:33;;;;;;;20.73;13.93;;;3.00;99.90;;;;;;5092442;28;20633;-42
2021/01/05 05:54:07;;;;;;;18.95;14.05;;;3.10;99.90;;;;;;5092769;28;20238;-42
2021/01/05 05:56:49;;;;;;;21.50;13.77;;;3.20;99.90;;;;;;5092387;28;20280;-42
2021/01/05 05:59:21;;;;;;;20.05;13.40;;;3.30;99.90;;;;;;5092341;28;20301;-42
2021/01/05 06:01:48;;;;;;;25.33;16.03;;;3.30;99.90;;;;;;5092433;28;20289;-42
2021/01/05 06:04:15;;;;;;;24.73;14.97;;;3.30;99.90;;;;;;5092768;28;20234;-42
2021/01/05 06:06:43;;;;;;;25.13;15.57;;;3.30;99.90;;;;;;5092076;28;20246;-43
2021/01/05 06:09:10;;;;;;;27.05;17.90;;;3.30;99.90;;;;;;5092534;28;20259;-43
2021/01/05 06:11:37;;;;;;;18.47;14.33;;;3.30;99.90;;;;;;5092048;28;20723;-42
2021/01/05 06:14:05;;;;;;;28.23;17.37;;;3.20;99.90;;;;;;5091741;28;20238;-40
2021/01/05 06:16:33;;;;;;;38.77;25.60;;;3.10;99.90;;;;;;5091848;28;20293;-42
2021/01/05 06:19:00;;;;;;;26.90;16.20;;;3.00;99.90;;;;;;5092242;28;20199;-42
2021/01/05 06:21:28;;;;;;;26.55;17.40;;;3.00;99.90;;;;;;5092177;28;20210;-43
2021/01/05 06:23:54;;;;;;;39.80;25.57;;;3.00;99.90;;;;;;5092182;28;20242;-43
2021/01/05 06:26:22;;;;;;;24.60;15.97;;;3.00;99.90;;;;;;5091996;28;20203;-43
2021/01/05 06:28:49;;;;;;;17.58;11.85;;;3.00;99.90;;;;;;5091838;28;20230;-41
2021/01/05 06:31:16;;;;;;;18.73;11.77;;;3.10;99.90;;;;;;5091762;28;20210;-42
2021/01/05 06:33:44;;;;;;;19.08;12.18;;;3.20;99.90;;;;;;5091955;28;20240;-42
2021/01/05 06:36:11;;;;;;;20.58;13.15;;;3.30;99.90;;;;;;5092004;28;20211;-43
2021/01/05 06:38:39;;;;;;;20.85;13.50;;;3.30;99.90;;;;;;5091849;28;20211;-44
2021/01/05 06:41:06;;;;;;;22.30;14.93;;;3.20;99.90;;;;;;5091674;28;20215;-43
2021/01/05 06:43:33;;;;;;;20.00;13.90;;;3.20;99.90;;;;;;5091595;28;20210;-42
2021/01/05 06:46:00;;;;;;;19.67;14.00;;;3.20;99.90;;;;;;5091931;28;20254;-42
2021/01/05 06:48:27;;;;;;;30.05;17.05;;;3.20;99.90;;;;;;5091454;28;20711;-42
2021/01/05 06:50:55;;;;;;;24.00;15.60;;;3.30;99.90;;;;;;5091793;28;20635;-41
2021/01/05 06:53:23;;;;;;;20.42;13.27;;;3.30;99.90;;;;;;5092072;28;20260;-42
2021/01/05 06:55:50;;;;;;;24.08;15.25;;;3.30;99.90;;;;;;5091583;28;20316;-40
2021/01/05 06:58:17;;;;;;;16.90;12.40;;;3.30;99.90;;;;;;5091630;28;20625;-40
2021/01/05 07:00:43;;;;;;;21.50;13.95;;;3.20;99.90;;;;;;5091831;28;20284;-41
2021/01/05 07:03:11;;;;;;;18.77;12.48;;;3.20;99.90;;;;;;5095465;28;20762;-42
2021/01/05 07:05:38;;;;;;;22.77;14.93;;;3.10;99.90;;;;;;5095622;28;20242;-43
2021/01/05 07:08:06;;;;;;;18.02;13.32;;;3.00;99.90;;;;;;5095468;28;20310;-40
2021/01/05 07:10:33;;;;;;;20.58;14.30;;;3.00;99.90;;;;;;5094993;28;20269;-40
2021/01/05 07:13:00;;;;;;;22.17;14.50;;;3.00;99.90;;;;;;5095237;28;20207;-41
2021/01/05 07:15:29;;;;;;;22.83;14.67;;;3.00;99.90;;;;;;5095431;28;20216;-41
2021/01/05 07:17:56;;;;;;;22.53;14.20;;;3.00;99.90;;;;;;5095519;28;20249;-41
2021/01/05 07:20:23;;;;;;;33.03;19.80;;;3.00;99.90;;;;;;5095376;28;20600;-42
2021/01/05 07:22:50;;;;;;;24.40;17.27;;;3.00;99.90;;;;;;5095019;28;20313;-42
2021/01/05 07:25:18;;;;;;;23.92;15.88;;;3.00;99.90;;;;;;5095152;28;20285;-42
2021/01/05 07:27:45;;;;;;;37.15;22.02;;;2.90;99.90;;;;;;5095102;28;20351;-42
2021/01/05 07:30:12;;;;;;;28.52;19.83;;;2.90;99.90;;;;;;5094968;28;20249;-43
2021/01/05 07:32:40;;;;;;;34.67;23.30;;;2.90;99.90;;;;;;5095172;28;20331;-44
2021/01/05 07:35:10;;;;;;;25.65;16.52;;;2.80;99.90;;;;;;5094945;28;20207;-41
2021/01/05 07:37:41;;;;;;;24.83;16.20;;;2.90;99.90;;;;;;5094813;28;20242;-42
2021/01/05 07:40:10;;;;;;;24.63;16.48;;;2.90;99.90;;;;;;5094839;28;20261;-42
2021/01/05 07:42:38;;;;;;;25.20;15.63;;;2.80;99.90;;;;;;5094831;28;20213;-41
2021/01/05 07:45:08;;;;;;;24.00;14.85;;;2.80;99.90;;;;;;5094507;28;20605;-41
2021/01/05 07:47:37;;;;;;;25.35;15.73;;;2.80;99.90;;;;;;5094956;28;20226;-41
2021/01/05 07:50:07;;;;;;;26.50;17.17;;;2.80;99.90;;;;;;5097339;28;20274;-41
2021/01/05 07:52:37;;;;;;;23.17;15.55;;;2.80;99.90;;;;;;5095266;28;20293;-41
2021/01/05 07:55:06;;;;;;;22.15;16.02;;;2.80;99.90;;;;;;5094783;28;20206;-41
2021/01/05 07:57:34;;;;;;;21.52;15.27;;;2.80;99.90;;;;;;5094439;28;20199;-41
2021/01/05 08:00:03;;;;;;;23.30;15.75;;;2.80;99.90;;;;;;5094539;28;20242;-41
2021/01/05 08:02:30;;;;;;;23.75;14.60;;;2.90;99.90;;;;;;5094454;28;20207;-41
2021/01/05 08:04:57;;;;;;;24.25;15.07;;;2.90;99.90;;;;;;5094338;28;20673;-45
2021/01/05 08:07:25;;;;;;;25.85;17.45;;;3.00;99.90;;;;;;5094349;28;20284;-42
2021/01/05 08:09:51;;;;;;;26.25;16.42;;;3.00;99.90;;;;;;5094139;28;20253;-43
2021/01/05 08:12:19;;;;;;;28.08;17.55;;;3.00;99.90;;;;;;5093605;28;20248;-42
2021/01/05 08:14:47;;;;;;;29.55;17.88;;;3.10;99.90;;;;;;5094208;28;20207;-43
2021/01/05 08:17:15;;;;;;;25.80;15.95;;;3.10;99.90;;;;;;5093986;28;20645;-42
2021/01/05 08:19:43;;;;;;;26.98;16.80;;;3.00;99.90;;;;;;5094336;28;20213;-41
2021/01/05 08:22:10;;;;;;;27.55;16.77;;;2.90;99.90;;;;;;5094484;28;20224;-42
2021/01/05 08:24:37;;;;;;;23.60;16.33;;;2.90;99.90;;;;;;5094453;28;20302;-43
2021/01/05 08:27:06;;;;;;;25.83;17.00;;;3.00;99.90;;;;;;5093858;28;20202;-43
2021/01/05 08:29:33;;;;;;;28.65;17.52;;;3.00;99.90;;;;;;5093829;28;20203;-42
2021/01/05 08:32:00;;;;;;;26.15;18.15;;;2.90;99.90;;;;;;5093786;28;20297;-42
2021/01/05 08:34:28;;;;;;;27.63;16.73;;;2.80;99.90;;;;;;5094023;28;20206;-43
2021/01/05 08:36:55;;;;;;;28.50;18.50;;;2.80;99.90;;;;;;5093850;28;20215;-44
2021/01/05 08:39:22;;;;;;;29.67;18.53;;;2.70;99.90;;;;;;5093879;28;20207;-42
2021/01/05 08:41:53;;;;;;;26.55;18.05;;;2.60;99.90;;;;;;5093831;28;20203;-42
2021/01/05 08:44:21;;;;;;;27.20;17.90;;;2.50;99.90;;;;;;5093536;28;20730;-42
2021/01/05 08:46:49;;;;;;;27.75;18.35;;;2.60;99.90;;;;;;5093381;28;20661;-42
2021/01/05 08:49:16;;;;;;;26.08;17.67;;;2.50;99.90;;;;;;5093146;28;20272;-44
2021/01/05 08:51:44;;;;;;;25.95;17.67;;;2.40;99.90;;;;;;5093501;28;20234;-43
2021/01/05 08:54:11;;;;;;;27.60;19.13;;;2.30;99.90;;;;;;5093366;28;20388;-44
2021/01/05 08:56:41;;;;;;;26.27;17.48;;;2.30;99.90;;;;;;5093530;28;20574;-42
2021/01/05 08:59:08;;;;;;;27.63;16.65;;;2.40;99.90;;;;;;5093161;28;20210;-42
2021/01/05 09:01:35;;;;;;;31.00;19.60;;;2.40;99.90;;;;;;5093408;28;20260;-42
2021/01/05 09:04:02;;;;;;;28.38;19.05;;;2.30;99.90;;;;;;5093191;28;20263;-42
2021/01/05 09:06:29;;;;;;;32.03;18.70;;;2.30;99.90;;;;;;5093221;28;20635;-42
2021/01/05 09:08:57;;;;;;;31.63;18.20;;;2.30;99.90;;;;;;5093093;28;20313;-41
2021/01/05 09:11:27;;;;;;;25.90;17.55;;;2.20;99.90;;;;;;5092972;28;20242;-42
2021/01/05 09:13:55;;;;;;;27.08;17.73;;;2.30;99.90;;;;;;5092947;28;20207;-42
2021/01/05 09:16:25;;;;;;;30.25;17.42;;;2.30;99.90;;;;;;5093186;28;20541;-41
2021/01/05 09:18:52;;;;;;;27.60;19.25;;;2.30;99.90;;;;;;5093092;28;20233;-43
2021/01/05 09:21:22;;;;;;;29.30;18.87;;;2.30;99.90;;;;;;5092703;28;20260;-41
2021/01/05 09:23:51;;;;;;;29.15;18.02;;;2.40;99.90;;;;;;5092101;28;20275;-41
2021/01/05 09:26:21;;;;;;;30.27;18.02;;;2.40;99.90;;;;;;5092596;28;20211;-41
2021/01/05 09:28:49;;;;;;;29.40;20.58;;;2.60;99.90;;;;;;5092460;28;20660;-42
2021/01/05 09:31:16;;;;;;;27.53;18.40;;;2.70;99.90;;;;;;5092864;28;20218;-51
2021/01/05 09:33:43;;;;;;;32.50;23.10;;;2.80;99.90;;;;;;5092552;28;20243;-42
2021/01/05 09:36:11;;;;;;;30.70;17.90;;;2.80;99.90;;;;;;5092653;28;20250;-41
2021/01/05 09:38:39;;;;;;;24.70;17.98;;;2.90;99.90;;;;;;5092591;28;20655;-42
2021/01/05 09:41:07;;;;;;;24.70;16.37;;;2.90;99.90;;;;;;5092788;28;20241;-41
2021/01/05 09:43:35;;;;;;;27.55;17.48;;;2.80;99.90;;;;;;5092471;28;20211;-41
2021/01/05 09:46:03;;;;;;;23.93;16.63;;;2.90;99.90;;;;;;5092626;28;20374;-41
2021/01/05 09:48:33;;;;;;;25.25;18.23;;;2.90;99.90;;;;;;5092426;28;20233;-42
2021/01/05 09:51:00;;;;;;;31.43;17.93;;;3.00;99.90;;;;;;5092265;28;20310;-40
2021/01/05 09:53:27;;;;;;;24.00;16.45;;;3.00;99.90;;;;;;5092240;28;20202;-42
2021/01/05 09:55:54;;;;;;;28.85;18.08;;;3.00;99.90;;;;;;5092492;28;20256;-41
2021/01/05 09:58:21;;;;;;;25.65;17.35;;;3.00;99.90;;;;;;5092374;28;20199;-42
2021/01/05 10:00:49;;;;;;;26.67;17.45;;;3.00;99.90;;;;;;5092285;28;20639;-42
2021/01/05 10:03:16;;;;;;;23.77;15.52;;;2.90;99.90;;;;;;5092196;28;20309;-40
2021/01/05 10:05:43;;;;;;;26.88;18.17;;;2.80;99.90;;;;;;5091892;28;20206;-41
2021/01/05 10:08:09;;;;;;;25.25;16.13;;;2.80;99.90;;;;;;5091916;28;20268;-41
2021/01/05 10:10:36;;;;;;;30.70;16.27;;;2.80;99.90;;;;;;5091815;28;20256;-40
2021/01/05 10:13:03;;;;;;;27.17;16.85;;;2.80;99.90;;;;;;5092114;28;20316;-40
2021/01/05 10:15:31;;;;;;;28.52;16.17;;;2.80;99.90;;;;;;5092065;28;20218;-41
2021/01/05 10:18:02;;;;;;;20.70;14.13;;;2.80;99.90;;;;;;5091843;28;20210;-41
2021/01/05 10:20:29;;;;;;;31.80;17.27;;;2.80;99.90;;;;;;5091924;28;20794;-43
2021/01/05 10:22:56;;;;;;;25.27;15.45;;;2.80;99.90;;;;;;5092096;28;20297;-41
2021/01/05 10:25:24;;;;;;;23.20;16.05;;;2.90;99.90;;;;;;5091799;28;20285;-41
2021/01/05 10:27:50;;;;;;;27.70;20.40;;;2.90;99.90;;;;;;5091862;28;20227;-41
2021/01/05 10:30:20;;;;;;;22.95;15.35;;;3.00;99.90;;;;;;5091899;28;20307;-41
2021/01/05 10:32:47;;;;;;;25.27;15.05;;;3.00;99.90;;;;;;5092018;28;20202;-42
2021/01/05 10:35:17;;;;;;;21.50;13.50;;;3.00;99.90;;;;;;5092957;28;20210;-43
2021/01/05 10:37:45;;;;;;;24.25;15.40;;;3.00;99.90;;;;;;5096186;28;20297;-41
2021/01/05 10:40:14;;;;;;;25.73;14.80;;;3.00;99.90;;;;;;5095910;28;20206;-42
2021/01/05 10:42:42;;;;;;;24.52;15.75;;;3.00;99.90;;;;;;5095958;28;20206;-40
2021/01/05 10:45:12;;;;;;;23.65;14.32;;;3.00;99.90;;;;;;5095744;28;20305;-41
2021/01/05 10:47:39;;;;;;;21.67;12.90;;;3.00;99.90;;;;;;5095837;28;20207;-41
2021/01/05 10:50:08;;;;;;;24.17;16.83;;;3.00;99.90;;;;;;5095637;28;20245;-40
2021/01/05 10:52:36;;;;;;;21.30;13.82;;;3.00;99.90;;;;;;5095847;28;20291;-40
2021/01/05 10:55:04;;;;;;;20.55;12.15;;;3.00;99.90;;;;;;5095568;28;20298;-40
2021/01/05 10:57:31;;;;;;;22.95;15.48;;;3.00;99.90;;;;;;5095385;28;20237;-40
2021/01/05 10:59:58;;;;;;;28.27;24.77;;;3.10;99.90;;;;;;5095546;28;20668;-40
2021/01/05 11:02:26;;;;;;;23.35;14.70;;;3.10;99.90;;;;;;5095308;28;20207;-40
2021/01/05 11:04:53;;;;;;;21.15;14.85;;;3.20;99.90;;;;;;5095307;28;20210;-40
2021/01/05 11:07:20;;;;;;;19.07;13.03;;;3.20;99.90;;;;;;5095789;28;20253;-41
2021/01/05 11:09:48;;;;;;;17.47;12.33;;;3.20;99.90;;;;;;5095416;28;20232;-40
2021/01/05 11:12:21;;;;;;;18.50;11.48;;;3.20;99.90;;;;;;5095450;28;20350;-40
2021/01/05 11:14:48;;;;;;;42.03;25.50;;;3.20;99.90;;;;;;5095794;28;20211;-40
2021/01/05 11:17:15;;;;;;;24.48;16.45;;;3.00;99.90;;;;;;5095147;28;20207;-45
2021/01/05 11:19:43;;;;;;;22.50;14.07;;;2.90;99.90;;;;;;5095251;28;20230;-43
2021/01/05 11:22:14;;;;;;;19.47;13.23;;;2.80;99.90;;;;;;5095131;28;20217;-43
2021/01/05 11:24:41;;;;;;;21.35;13.45;;;2.80;99.90;;;;;;5095117;28;20289;-44
2021/01/05 11:27:10;;;;;;;20.00;14.00;;;2.90;99.90;;;;;;5095227;28;20211;-43
2021/01/05 11:29:37;;;;;;;20.23;13.63;;;2.90;99.90;;;;;;5094797;28;20273;-43
2021/01/05 11:32:06;;;;;;;23.60;14.45;;;2.90;99.90;;;;;;5095188;28;20246;-41
2021/01/05 11:34:34;;;;;;;20.20;13.90;;;2.80;99.90;;;;;;5095326;28;20210;-41
2021/01/05 11:37:02;;;;;;;21.73;14.40;;;2.80;99.90;;;;;;5094947;28;20294;-41
2021/01/05 11:39:29;;;;;;;23.35;13.63;;;2.80;99.90;;;;;;5094776;28;20254;-41
2021/01/05 11:41:58;;;;;;;21.67;14.23;;;2.90;99.90;;;;;;5094913;28;20225;-40
2021/01/05 11:44:26;;;;;;;19.48;13.88;;;2.80;99.90;;;;;;5094909;28;20291;-40
2021/01/05 11:46:53;;;;;;;20.25;13.38;;;2.90;99.90;;;;;;5093771;28;20293;-41
2021/01/05 11:49:21;;;;;;;23.57;15.37;;;2.90;99.90;;;;;;5094396;28;20326;-42
2021/01/05 11:51:50;;;;;;;23.40;13.30;;;2.90;99.90;;;;;;5094514;28;20202;-40
2021/01/05 11:54:18;;;;;;;21.08;13.23;;;2.90;99.90;;;;;;5094522;28;20665;-41
2021/01/05 11:56:45;;;;;;;20.95;13.80;;;2.90;99.90;;;;;;5094627;28;20211;-43
2021/01/05 11:59:15;;;;;;;21.23;13.57;;;3.00;99.90;;;;;;5094455;28;20214;-41
2021/01/05 12:01:43;;;;;;;24.17;14.27;;;3.00;99.90;;;;;;5094138;28;20691;-41
2021/01/05 12:04:11;;;;;;;20.25;13.75;;;3.10;99.90;;;;;;5094476;28;20392;-41
2021/01/05 12:06:38;;;;;;;19.65;13.50;;;3.10;99.90;;;;;;5094109;28;20478;-41
2021/01/05 12:09:08;;;;;;;23.45;13.65;;;3.10;99.90;;;;;;5094403;28;20249;-41
2021/01/05 12:11:35;;;;;;;18.75;13.15;;;3.10;99.90;;;;;;5094154;28;20329;-42
2021/01/05 12:14:04;;;;;;;19.63;13.57;;;3.20;99.90;;;;;;5093985;28;20260;-42
2021/01/05 12:16:43;;;;;;;17.73;12.25;;;3.20;99.90;;;;;;5094255;28;20210;-41
2021/01/05 12:19:13;;;;;;;19.23;12.03;;;3.10;99.90;;;;;;5094057;28;20248;-41
2021/01/05 12:21:42;;;;;;;20.15;12.63;;;3.20;99.90;;;;;;5094050;28;20210;-41
2021/01/05 12:24:12;;;;;;;18.88;12.98;;;3.30;99.90;;;;;;5094181;28;20206;-42
2021/01/05 12:26:40;;;;;;;19.88;14.15;;;3.30;99.90;;;;;;5094119;28;20230;-42
2021/01/05 12:29:10;;;;;;;21.50;14.60;;;3.40;99.90;;;;;;5093796;28;20232;-42
2021/01/05 12:31:40;;;;;;;36.13;25.20;;;3.40;99.80;;;;;;5094038;28;20237;-41
2021/01/05 12:34:09;;;;;;;25.50;15.85;;;3.40;99.70;;;;;;5094065;28;20215;-40
2021/01/05 12:36:38;;;;;;;46.30;30.75;;;3.30;99.60;;;;;;5093791;28;20294;-41
2021/01/05 12:39:07;;;;;;;24.23;15.95;;;3.30;99.90;;;;;;5093714;28;20281;-41
2021/01/05 12:41:36;;;;;;;32.13;21.80;;;3.30;99.80;;;;;;5093578;28;20246;-41
2021/01/05 12:44:04;;;;;;;22.47;15.47;;;3.30;99.90;;;;;;5093579;28;20639;-41
2021/01/05 12:46:34;;;;;;;21.17;14.07;;;3.20;99.80;;;;;;5093812;28;20318;-41
2021/01/05 12:49:01;;;;;;;24.55;16.13;;;3.20;99.90;;;;;;5093454;28;20226;-41
2021/01/05 12:51:37;;;;;;;27.52;17.77;;;3.20;99.90;;;;;;5093687;28;20206;-42
2021/01/05 12:54:05;;;;;;;23.33;15.93;;;3.10;99.90;;;;;;5093456;28;20641;-41
2021/01/05 12:56:33;;;;;;;18.85;12.88;;;3.10;99.90;;;;;;5093049;28;20246;-42
2021/01/05 12:59:00;;;;;;;21.55;14.60;;;3.10;99.90;;;;;;5093095;28;20256;-40